sensor_id;sensor_type;location;lat;lon;timestamp;P1;durP1;ratioP1;P2;durP2;ratioP2
68947;SDS011;55996;49.546;7.400;2023-08-17T00:02:22;7.00;;;4.10;;
68947;SDS011;55996;49.546;7.400;2023-08-17T00:04:47;4.97;;;4.23;;
68947;SDS011;55996;49.546;7.400;2023-08-17T00:07:13;4.97;;;4.47;;
68947;SDS011;55996;49.546;7.400;2023-08-17T00:09:38;7.17;;;4.77;;
68947;SDS011;55996;49.546;7.400;2023-08-17T00:12:04;5.13;;;4.63;;
68947;SDS011;55996;49.546;7.400;2023-08-17T00:14:30;7.17;;;4.73;;
68947;SDS011;55996;49.546;7.400;2023-08-17T00:16:55;6.03;;;4.40;;
68947;SDS011;55996;49.546;7.400;2023-08-17T00:19:21;9.33;;;4.97;;
68947;SDS011;55996;49.546;7.400;2023-08-17T00:21:46;6.50;;;4.77;;
68947;SDS011;55996;49.546;7.400;2023-08-17T00:24:12;5.97;;;4.87;;
68947;SDS011;55996;49.546;7.400;2023-08-17T00:26:38;8.30;;;4.80;;
68947;SDS011;55996;49.546;7.400;2023-08-17T00:29:03;10.80;;;4.63;;
68947;SDS011;55996;49.546;7.400;2023-08-17T00:31:29;11.53;;;4.87;;
68947;SDS011;55996;49.546;7.400;2023-08-17T00:33:55;8.47;;;5.03;;
68947;SDS011;55996;49.546;7.400;2023-08-17T00:36:20;7.53;;;4.80;;
68947;SDS011;55996;49.546;7.400;2023-08-17T00:38:45;7.77;;;4.77;;
68947;SDS011;55996;49.546;7.400;2023-08-17T00:41:11;9.77;;;5.20;;
68947;SDS011;55996;49.546;7.400;2023-08-17T00:43:36;5.33;;;4.60;;
68947;SDS011;55996;49.546;7.400;2023-08-17T00:46:02;7.77;;;4.87;;
68947;SDS011;55996;49.546;7.400;2023-08-17T00:48:28;10.90;;;4.43;;
68947;SDS011;55996;49.546;7.400;2023-08-17T00:50:54;10.55;;;4.07;;
68947;SDS011;55996;49.546;7.400;2023-08-17T00:53:22;6.90;;;4.70;;
68947;SDS011;55996;49.546;7.400;2023-08-17T00:55:49;5.50;;;3.60;;
68947;SDS011;55996;49.546;7.400;2023-08-17T00:58:17;5.40;;;4.23;;
68947;SDS011;55996;49.546;7.400;2023-08-17T01:00:42;6.83;;;4.20;;
68947;SDS011;55996;49.546;7.400;2023-08-17T01:03:08;9.10;;;4.20;;
68947;SDS011;55996;49.546;7.400;2023-08-17T01:05:33;8.67;;;4.03;;
68947;SDS011;55996;49.546;7.400;2023-08-17T01:07:59;4.87;;;3.80;;
68947;SDS011;55996;49.546;7.400;2023-08-17T01:10:33;5.23;;;4.10;;
68947;SDS011;55996;49.546;7.400;2023-08-17T01:14:04;4.37;;;3.97;;
68947;SDS011;55996;49.546;7.400;2023-08-17T01:16:12;28.03;;;4.40;;
68947;SDS011;55996;49.546;7.400;2023-08-17T01:18:41;4.87;;;4.00;;
68947;SDS011;55996;49.546;7.400;2023-08-17T01:21:10;7.03;;;3.40;;
68947;SDS011;55996;49.546;7.400;2023-08-17T01:23:38;5.60;;;3.40;;
68947;SDS011;55996;49.546;7.400;2023-08-17T01:26:04;7.30;;;3.40;;
68947;SDS011;55996;49.546;7.400;2023-08-17T01:28:29;4.07;;;3.47;;
68947;SDS011;55996;49.546;7.400;2023-08-17T01:30:57;3.70;;;3.10;;
68947;SDS011;55996;49.546;7.400;2023-08-17T01:33:29;3.47;;;2.90;;
68947;SDS011;55996;49.546;7.400;2023-08-17T01:38:56;2.53;;;2.27;;
68947;SDS011;55996;49.546;7.400;2023-08-17T01:41:24;6.10;;;2.90;;
68947;SDS011;55996;49.546;7.400;2023-08-17T01:43:51;9.47;;;2.90;;
68947;SDS011;55996;49.546;7.400;2023-08-17T01:46:18;4.87;;;3.23;;
68947;SDS011;55996;49.546;7.400;2023-08-17T01:48:44;4.40;;;2.90;;
68947;SDS011;55996;49.546;7.400;2023-08-17T01:51:11;8.07;;;2.80;;
68947;SDS011;55996;49.546;7.400;2023-08-17T01:53:41;5.57;;;2.57;;
68947;SDS011;55996;49.546;7.400;2023-08-17T01:56:06;3.83;;;2.60;;
68947;SDS011;55996;49.546;7.400;2023-08-17T01:58:32;4.90;;;2.90;;
68947;SDS011;55996;49.546;7.400;2023-08-17T02:00:57;4.70;;;2.70;;
68947;SDS011;55996;49.546;7.400;2023-08-17T02:03:23;5.27;;;2.80;;
68947;SDS011;55996;49.546;7.400;2023-08-17T02:05:48;7.23;;;2.83;;
68947;SDS011;55996;49.546;7.400;2023-08-17T02:08:14;8.03;;;2.20;;
68947;SDS011;55996;49.546;7.400;2023-08-17T02:10:39;2.80;;;2.60;;
68947;SDS011;55996;49.546;7.400;2023-08-17T02:13:05;3.53;;;2.47;;
68947;SDS011;55996;49.546;7.400;2023-08-17T02:15:30;3.00;;;2.67;;
68947;SDS011;55996;49.546;7.400;2023-08-17T02:18:00;3.53;;;2.57;;
68947;SDS011;55996;49.546;7.400;2023-08-17T02:20:26;6.77;;;2.73;;
68947;SDS011;55996;49.546;7.400;2023-08-17T02:22:52;2.80;;;2.60;;
68947;SDS011;55996;49.546;7.400;2023-08-17T02:25:17;5.83;;;2.80;;
68947;SDS011;55996;49.546;7.400;2023-08-17T02:27:42;3.50;;;2.37;;
68947;SDS011;55996;49.546;7.400;2023-08-17T02:30:08;3.27;;;2.43;;
68947;SDS011;55996;49.546;7.400;2023-08-17T02:32:34;3.20;;;2.90;;
68947;SDS011;55996;49.546;7.400;2023-08-17T02:34:59;7.00;;;2.50;;
68947;SDS011;55996;49.546;7.400;2023-08-17T02:37:25;5.93;;;2.50;;
68947;SDS011;55996;49.546;7.400;2023-08-17T02:39:50;2.60;;;2.40;;
68947;SDS011;55996;49.546;7.400;2023-08-17T02:42:16;2.30;;;2.07;;
68947;SDS011;55996;49.546;7.400;2023-08-17T02:44:41;4.03;;;2.53;;
68947;SDS011;55996;49.546;7.400;2023-08-17T02:47:06;6.37;;;2.77;;
68947;SDS011;55996;49.546;7.400;2023-08-17T02:49:32;3.97;;;2.70;;
68947;SDS011;55996;49.546;7.400;2023-08-17T02:51:57;5.77;;;3.20;;
68947;SDS011;55996;49.546;7.400;2023-08-17T02:54:23;3.70;;;2.90;;
68947;SDS011;55996;49.546;7.400;2023-08-17T02:56:48;7.33;;;3.10;;
68947;SDS011;55996;49.546;7.400;2023-08-17T02:59:14;5.57;;;3.10;;
68947;SDS011;55996;49.546;7.400;2023-08-17T03:01:39;6.50;;;3.07;;
68947;SDS011;55996;49.546;7.400;2023-08-17T03:04:04;3.43;;;2.97;;
68947;SDS011;55996;49.546;7.400;2023-08-17T03:06:30;4.63;;;3.00;;
68947;SDS011;55996;49.546;7.400;2023-08-17T03:08:55;5.10;;;3.07;;
68947;SDS011;55996;49.546;7.400;2023-08-17T03:11:21;5.30;;;3.40;;
68947;SDS011;55996;49.546;7.400;2023-08-17T03:13:46;4.03;;;3.30;;
68947;SDS011;55996;49.546;7.400;2023-08-17T03:16:13;8.43;;;3.30;;
68947;SDS011;55996;49.546;7.400;2023-08-17T03:18:38;4.40;;;3.50;;
68947;SDS011;55996;49.546;7.400;2023-08-17T03:21:04;4.57;;;3.20;;
68947;SDS011;55996;49.546;7.400;2023-08-17T03:23:29;5.67;;;3.20;;
68947;SDS011;55996;49.546;7.400;2023-08-17T03:25:55;3.77;;;3.40;;
68947;SDS011;55996;49.546;7.400;2023-08-17T03:28:20;3.97;;;3.37;;
68947;SDS011;55996;49.546;7.400;2023-08-17T03:30:46;5.87;;;3.50;;
68947;SDS011;55996;49.546;7.400;2023-08-17T03:33:11;4.73;;;3.40;;
68947;SDS011;55996;49.546;7.400;2023-08-17T03:35:37;4.63;;;3.17;;
68947;SDS011;55996;49.546;7.400;2023-08-17T03:38:02;4.20;;;3.17;;
68947;SDS011;55996;49.546;7.400;2023-08-17T03:40:28;3.97;;;3.03;;
68947;SDS011;55996;49.546;7.400;2023-08-17T03:42:53;3.90;;;3.47;;
68947;SDS011;55996;49.546;7.400;2023-08-17T03:45:19;6.60;;;3.30;;
68947;SDS011;55996;49.546;7.400;2023-08-17T03:47:44;5.67;;;3.37;;
68947;SDS011;55996;49.546;7.400;2023-08-17T03:50:10;4.43;;;3.30;;
68947;SDS011;55996;49.546;7.400;2023-08-17T03:52:35;3.80;;;3.23;;
68947;SDS011;55996;49.546;7.400;2023-08-17T03:55:01;7.13;;;3.40;;
68947;SDS011;55996;49.546;7.400;2023-08-17T03:57:26;5.03;;;3.00;;
68947;SDS011;55996;49.546;7.400;2023-08-17T03:59:52;7.60;;;3.20;;
68947;SDS011;55996;49.546;7.400;2023-08-17T04:02:17;4.40;;;3.60;;
68947;SDS011;55996;49.546;7.400;2023-08-17T04:04:43;4.83;;;3.47;;
68947;SDS011;55996;49.546;7.400;2023-08-17T04:07:08;6.63;;;3.43;;
68947;SDS011;55996;49.546;7.400;2023-08-17T04:09:34;7.20;;;3.70;;
68947;SDS011;55996;49.546;7.400;2023-08-17T04:12:00;9.07;;;4.20;;
68947;SDS011;55996;49.546;7.400;2023-08-17T04:14:25;9.70;;;4.10;;
68947;SDS011;55996;49.546;7.400;2023-08-17T04:16:51;7.03;;;4.73;;
68947;SDS011;55996;49.546;7.400;2023-08-17T04:19:17;10.87;;;5.33;;
68947;SDS011;55996;49.546;7.400;2023-08-17T04:21:42;11.20;;;5.10;;
68947;SDS011;55996;49.546;7.400;2023-08-17T04:24:07;10.90;;;5.37;;
68947;SDS011;55996;49.546;7.400;2023-08-17T04:26:33;10.00;;;5.10;;
68947;SDS011;55996;49.546;7.400;2023-08-17T04:28:58;9.07;;;4.83;;
68947;SDS011;55996;49.546;7.400;2023-08-17T04:31:24;9.80;;;5.10;;
68947;SDS011;55996;49.546;7.400;2023-08-17T04:33:49;6.83;;;4.57;;
68947;SDS011;55996;49.546;7.400;2023-08-17T04:36:15;9.57;;;4.63;;
68947;SDS011;55996;49.546;7.400;2023-08-17T04:38:40;10.70;;;4.40;;
68947;SDS011;55996;49.546;7.400;2023-08-17T04:41:06;8.47;;;4.83;;
68947;SDS011;55996;49.546;7.400;2023-08-17T04:43:31;6.23;;;4.43;;
68947;SDS011;55996;49.546;7.400;2023-08-17T04:45:56;6.40;;;4.30;;
68947;SDS011;55996;49.546;7.400;2023-08-17T04:48:22;7.43;;;4.03;;
68947;SDS011;55996;49.546;7.400;2023-08-17T04:50:48;4.57;;;3.73;;
68947;SDS011;55996;49.546;7.400;2023-08-17T04:53:13;5.87;;;4.17;;
68947;SDS011;55996;49.546;7.400;2023-08-17T04:55:39;6.10;;;4.03;;
68947;SDS011;55996;49.546;7.400;2023-08-17T04:58:04;6.03;;;3.87;;
68947;SDS011;55996;49.546;7.400;2023-08-17T05:00:30;4.33;;;3.90;;
68947;SDS011;55996;49.546;7.400;2023-08-17T05:02:55;4.33;;;3.87;;
68947;SDS011;55996;49.546;7.400;2023-08-17T05:05:21;7.30;;;4.07;;
68947;SDS011;55996;49.546;7.400;2023-08-17T05:07:47;4.20;;;3.80;;
68947;SDS011;55996;49.546;7.400;2023-08-17T05:10:13;4.10;;;3.40;;
68947;SDS011;55996;49.546;7.400;2023-08-17T05:12:38;5.70;;;3.67;;
68947;SDS011;55996;49.546;7.400;2023-08-17T05:15:04;4.97;;;3.30;;
68947;SDS011;55996;49.546;7.400;2023-08-17T05:17:29;5.20;;;3.20;;
68947;SDS011;55996;49.546;7.400;2023-08-17T05:19:55;4.00;;;2.93;;
68947;SDS011;55996;49.546;7.400;2023-08-17T05:22:21;4.93;;;2.70;;
68947;SDS011;55996;49.546;7.400;2023-08-17T05:24:46;4.17;;;2.93;;
68947;SDS011;55996;49.546;7.400;2023-08-17T05:27:11;5.37;;;2.97;;
68947;SDS011;55996;49.546;7.400;2023-08-17T05:29:37;3.87;;;3.37;;
68947;SDS011;55996;49.546;7.400;2023-08-17T05:32:02;3.87;;;3.10;;
68947;SDS011;55996;49.546;7.400;2023-08-17T05:34:28;3.87;;;2.77;;
68947;SDS011;55996;49.546;7.400;2023-08-17T05:36:53;5.07;;;2.77;;
68947;SDS011;55996;49.546;7.400;2023-08-17T05:39:19;3.37;;;2.80;;
68947;SDS011;55996;49.546;7.400;2023-08-17T05:41:44;3.50;;;2.70;;
68947;SDS011;55996;49.546;7.400;2023-08-17T05:44:10;4.70;;;2.87;;
68947;SDS011;55996;49.546;7.400;2023-08-17T05:46:35;3.27;;;2.70;;
68947;SDS011;55996;49.546;7.400;2023-08-17T05:49:01;3.00;;;2.60;;
68947;SDS011;55996;49.546;7.400;2023-08-17T05:51:27;5.97;;;2.67;;
68947;SDS011;55996;49.546;7.400;2023-08-17T05:53:53;5.37;;;2.73;;
68947;SDS011;55996;49.546;7.400;2023-08-17T05:56:19;3.90;;;2.90;;
68947;SDS011;55996;49.546;7.400;2023-08-17T05:58:44;2.97;;;2.53;;
68947;SDS011;55996;49.546;7.400;2023-08-17T06:01:10;2.53;;;2.33;;
68947;SDS011;55996;49.546;7.400;2023-08-17T06:03:36;3.50;;;2.47;;
68947;SDS011;55996;49.546;7.400;2023-08-17T06:06:02;2.77;;;2.30;;
68947;SDS011;55996;49.546;7.400;2023-08-17T06:08:28;2.27;;;2.07;;
68947;SDS011;55996;49.546;7.400;2023-08-17T06:10:55;2.77;;;2.30;;
68947;SDS011;55996;49.546;7.400;2023-08-17T06:13:20;2.20;;;2.00;;
68947;SDS011;55996;49.546;7.400;2023-08-17T06:15:46;2.40;;;2.17;;
68947;SDS011;55996;49.546;7.400;2023-08-17T06:18:11;3.53;;;2.30;;
68947;SDS011;55996;49.546;7.400;2023-08-17T06:20:36;2.43;;;2.20;;
68947;SDS011;55996;49.546;7.400;2023-08-17T06:23:02;2.57;;;2.37;;
68947;SDS011;55996;49.546;7.400;2023-08-17T06:25:27;3.20;;;1.93;;
68947;SDS011;55996;49.546;7.400;2023-08-17T06:27:53;1.97;;;1.77;;
68947;SDS011;55996;49.546;7.400;2023-08-17T06:30:18;3.23;;;1.87;;
68947;SDS011;55996;49.546;7.400;2023-08-17T06:32:44;2.33;;;1.67;;
68947;SDS011;55996;49.546;7.400;2023-08-17T06:35:09;3.93;;;1.77;;
68947;SDS011;55996;49.546;7.400;2023-08-17T06:37:35;2.70;;;2.00;;
68947;SDS011;55996;49.546;7.400;2023-08-17T06:40:01;2.13;;;1.93;;
68947;SDS011;55996;49.546;7.400;2023-08-17T06:42:30;1.80;;;1.70;;
68947;SDS011;55996;49.546;7.400;2023-08-17T06:44:55;1.90;;;1.80;;
68947;SDS011;55996;49.546;7.400;2023-08-17T06:47:21;1.73;;;1.63;;
68947;SDS011;55996;49.546;7.400;2023-08-17T06:49:46;1.60;;;1.50;;
68947;SDS011;55996;49.546;7.400;2023-08-17T06:52:12;1.93;;;1.77;;
68947;SDS011;55996;49.546;7.400;2023-08-17T06:54:38;2.03;;;1.90;;
68947;SDS011;55996;49.546;7.400;2023-08-17T06:57:03;4.47;;;1.57;;
68947;SDS011;55996;49.546;7.400;2023-08-17T06:59:29;3.78;;;1.60;;
68947;SDS011;55996;49.546;7.400;2023-08-17T07:01:54;2.37;;;1.90;;
68947;SDS011;55996;49.546;7.400;2023-08-17T07:04:20;1.70;;;1.60;;
68947;SDS011;55996;49.546;7.400;2023-08-17T07:06:45;2.72;;;1.40;;
68947;SDS011;55996;49.546;7.400;2023-08-17T07:09:11;1.52;;;1.42;;
68947;SDS011;55996;49.546;7.400;2023-08-17T07:11:37;1.43;;;1.33;;
68947;SDS011;55996;49.546;7.400;2023-08-17T07:14:03;1.47;;;1.37;;
68947;SDS011;55996;49.546;7.400;2023-08-17T07:16:28;1.63;;;1.52;;
68947;SDS011;55996;49.546;7.400;2023-08-17T07:18:54;2.75;;;1.73;;
68947;SDS011;55996;49.546;7.400;2023-08-17T07:21:19;2.15;;;1.60;;
68947;SDS011;55996;49.546;7.400;2023-08-17T07:23:45;1.70;;;1.60;;
68947;SDS011;55996;49.546;7.400;2023-08-17T07:26:11;2.75;;;1.60;;
68947;SDS011;55996;49.546;7.400;2023-08-17T07:28:36;1.73;;;1.63;;
68947;SDS011;55996;49.546;7.400;2023-08-17T07:31:02;1.80;;;1.70;;
68947;SDS011;55996;49.546;7.400;2023-08-17T07:33:27;1.50;;;1.40;;
68947;SDS011;55996;49.546;7.400;2023-08-17T07:35:53;2.17;;;1.98;;
68947;SDS011;55996;49.546;7.400;2023-08-17T07:38:20;3.60;;;1.90;;
68947;SDS011;55996;49.546;7.400;2023-08-17T07:40:46;3.85;;;1.90;;
68947;SDS011;55996;49.546;7.400;2023-08-17T07:43:11;6.22;;;2.00;;
68947;SDS011;55996;49.546;7.400;2023-08-17T07:45:37;1.92;;;1.83;;
68947;SDS011;55996;49.546;7.400;2023-08-17T07:48:02;1.80;;;1.70;;
68947;SDS011;55996;49.546;7.400;2023-08-17T07:50:28;2.10;;;1.80;;
68947;SDS011;55996;49.546;7.400;2023-08-17T07:52:53;2.00;;;1.90;;
68947;SDS011;55996;49.546;7.400;2023-08-17T07:55:19;3.95;;;2.08;;
68947;SDS011;55996;49.546;7.400;2023-08-17T07:57:44;2.25;;;2.05;;
68947;SDS011;55996;49.546;7.400;2023-08-17T08:00:10;2.55;;;2.35;;
68947;SDS011;55996;49.546;7.400;2023-08-17T08:02:36;2.40;;;2.20;;
68947;SDS011;55996;49.546;7.400;2023-08-17T08:05:01;3.08;;;2.38;;
68947;SDS011;55996;49.546;7.400;2023-08-17T08:07:27;3.58;;;2.42;;
68947;SDS011;55996;49.546;7.400;2023-08-17T08:09:52;2.50;;;2.30;;
68947;SDS011;55996;49.546;7.400;2023-08-17T08:12:18;2.42;;;2.22;;
68947;SDS011;55996;49.546;7.400;2023-08-17T08:14:43;4.27;;;2.33;;
68947;SDS011;55996;49.546;7.400;2023-08-17T08:17:08;2.38;;;2.17;;
68947;SDS011;55996;49.546;7.400;2023-08-17T08:19:34;2.30;;;2.00;;
68947;SDS011;55996;49.546;7.400;2023-08-17T08:22:00;2.53;;;2.33;;
68947;SDS011;55996;49.546;7.400;2023-08-17T08:24:27;2.50;;;2.30;;
68947;SDS011;55996;49.546;7.400;2023-08-17T08:26:58;2.70;;;2.20;;
68947;SDS011;55996;49.546;7.400;2023-08-17T08:29:24;2.40;;;2.20;;
68947;SDS011;55996;49.546;7.400;2023-08-17T08:31:49;2.97;;;2.13;;
68947;SDS011;55996;49.546;7.400;2023-08-17T08:34:15;2.42;;;2.13;;
68947;SDS011;55996;49.546;7.400;2023-08-17T08:36:40;2.58;;;2.38;;
68947;SDS011;55996;49.546;7.400;2023-08-17T08:39:05;2.28;;;2.10;;
68947;SDS011;55996;49.546;7.400;2023-08-17T08:41:31;3.35;;;2.28;;
68947;SDS011;55996;49.546;7.400;2023-08-17T08:43:57;3.00;;;2.03;;
68947;SDS011;55996;49.546;7.400;2023-08-17T08:46:23;2.38;;;2.17;;
68947;SDS011;55996;49.546;7.400;2023-08-17T08:48:55;9.80;;;2.00;;
68947;SDS011;55996;49.546;7.400;2023-08-17T08:51:23;1.92;;;1.83;;
68947;SDS011;55996;49.546;7.400;2023-08-17T08:53:56;3.38;;;2.00;;
68947;SDS011;55996;49.546;7.400;2023-08-17T08:56:31;2.55;;;2.00;;
68947;SDS011;55996;49.546;7.400;2023-08-17T08:58:58;2.00;;;1.80;;
68947;SDS011;55996;49.546;7.400;2023-08-17T09:01:26;2.05;;;1.90;;
68947;SDS011;55996;49.546;7.400;2023-08-17T09:03:52;2.17;;;1.80;;
68947;SDS011;55996;49.546;7.400;2023-08-17T09:06:18;3.60;;;2.08;;
68947;SDS011;55996;49.546;7.400;2023-08-17T09:08:45;5.03;;;2.10;;
68947;SDS011;55996;49.546;7.400;2023-08-17T09:11:12;2.55;;;2.35;;
68947;SDS011;55996;49.546;7.400;2023-08-17T09:13:38;2.97;;;1.92;;
68947;SDS011;55996;49.546;7.400;2023-08-17T09:16:03;3.00;;;2.30;;
68947;SDS011;55996;49.546;7.400;2023-08-17T09:18:29;3.10;;;2.60;;
68947;SDS011;55996;49.546;7.400;2023-08-17T09:20:56;4.28;;;2.22;;
68947;SDS011;55996;49.546;7.400;2023-08-17T09:23:21;3.47;;;2.17;;
68947;SDS011;55996;49.546;7.400;2023-08-17T09:25:47;3.05;;;2.53;;
68947;SDS011;55996;49.546;7.400;2023-08-17T09:28:17;4.05;;;2.30;;
68947;SDS011;55996;49.546;7.400;2023-08-17T09:33:25;3.38;;;2.30;;
68947;SDS011;55996;49.546;7.400;2023-08-17T09:35:52;1.95;;;1.80;;
68947;SDS011;55996;49.546;7.400;2023-08-17T09:38:19;2.10;;;1.90;;
68947;SDS011;55996;49.546;7.400;2023-08-17T09:40:45;2.20;;;1.92;;
68947;SDS011;55996;49.546;7.400;2023-08-17T09:43:14;2.80;;;2.60;;
68947;SDS011;55996;49.546;7.400;2023-08-17T09:45:40;3.13;;;2.40;;
68947;SDS011;55996;49.546;7.400;2023-08-17T09:48:09;3.15;;;2.20;;
68947;SDS011;55996;49.546;7.400;2023-08-17T09:50:35;2.92;;;2.70;;
68947;SDS011;55996;49.546;7.400;2023-08-17T09:53:03;4.35;;;2.50;;
68947;SDS011;55996;49.546;7.400;2023-08-17T09:55:32;2.70;;;2.00;;
68947;SDS011;55996;49.546;7.400;2023-08-17T09:58:02;3.00;;;2.30;;
68947;SDS011;55996;49.546;7.400;2023-08-17T10:00:28;3.25;;;2.20;;
68947;SDS011;55996;49.546;7.400;2023-08-17T10:02:55;2.85;;;2.60;;
68947;SDS011;55996;49.546;7.400;2023-08-17T10:05:23;2.63;;;2.40;;
68947;SDS011;55996;49.546;7.400;2023-08-17T10:07:54;2.38;;;2.17;;
68947;SDS011;55996;49.546;7.400;2023-08-17T10:10:26;2.60;;;2.30;;
68947;SDS011;55996;49.546;7.400;2023-08-17T10:15:34;4.43;;;2.88;;
68947;SDS011;55996;49.546;7.400;2023-08-17T10:21:01;2.42;;;2.10;;
68947;SDS011;55996;49.546;7.400;2023-08-17T10:23:29;2.40;;;2.20;;
68947;SDS011;55996;49.546;7.400;2023-08-17T10:25:56;4.75;;;2.10;;
68947;SDS011;55996;49.546;7.400;2023-08-17T10:28:22;3.65;;;2.40;;
68947;SDS011;55996;49.546;7.400;2023-08-17T10:30:49;2.75;;;2.45;;
68947;SDS011;55996;49.546;7.400;2023-08-17T10:33:15;1.90;;;1.80;;
68947;SDS011;55996;49.546;7.400;2023-08-17T10:35:42;2.60;;;2.40;;
68947;SDS011;55996;49.546;7.400;2023-08-17T10:38:09;3.70;;;2.20;;
68947;SDS011;55996;49.546;7.400;2023-08-17T10:40:35;2.08;;;1.95;;
68947;SDS011;55996;49.546;7.400;2023-08-17T10:43:04;2.22;;;2.03;;
68947;SDS011;55996;49.546;7.400;2023-08-17T10:45:30;2.00;;;1.90;;
68947;SDS011;55996;49.546;7.400;2023-08-17T10:48:43;2.17;;;2.00;;
68947;SDS011;55996;49.546;7.400;2023-08-17T10:51:01;2.20;;;2.08;;
68947;SDS011;55996;49.546;7.400;2023-08-17T10:53:33;2.75;;;2.13;;
68947;SDS011;55996;49.546;7.400;2023-08-17T10:56:00;2.38;;;2.17;;
68947;SDS011;55996;49.546;7.400;2023-08-17T10:58:25;2.42;;;2.10;;
68947;SDS011;55996;49.546;7.400;2023-08-17T11:00:54;3.03;;;2.10;;
68947;SDS011;55996;49.546;7.400;2023-08-17T11:03:21;2.80;;;2.20;;
68947;SDS011;55996;49.546;7.400;2023-08-17T11:08:27;4.25;;;2.22;;
68947;SDS011;55996;49.546;7.400;2023-08-17T11:13:35;2.50;;;2.30;;
68947;SDS011;55996;49.546;7.400;2023-08-17T11:16:02;3.55;;;2.30;;
68947;SDS011;55996;49.546;7.400;2023-08-17T11:18:29;3.13;;;2.40;;
68947;SDS011;55996;49.546;7.400;2023-08-17T11:20:55;2.70;;;2.50;;
68947;SDS011;55996;49.546;7.400;2023-08-17T11:23:21;3.05;;;2.55;;
68947;SDS011;55996;49.546;7.400;2023-08-17T11:25:48;5.20;;;2.72;;
68947;SDS011;55996;49.546;7.400;2023-08-17T11:28:15;2.80;;;2.60;;
68947;SDS011;55996;49.546;7.400;2023-08-17T11:30:41;2.60;;;2.40;;
68947;SDS011;55996;49.546;7.400;2023-08-17T11:33:08;4.07;;;2.90;;
68947;SDS011;55996;49.546;7.400;2023-08-17T11:35:34;4.57;;;2.60;;
68947;SDS011;55996;49.546;7.400;2023-08-17T11:38:00;4.63;;;3.00;;
68947;SDS011;55996;49.546;7.400;2023-08-17T11:40:26;4.00;;;3.00;;
68947;SDS011;55996;49.546;7.400;2023-08-17T11:42:52;3.75;;;2.85;;
68947;SDS011;55996;49.546;7.400;2023-08-17T11:45:18;3.25;;;2.90;;
68947;SDS011;55996;49.546;7.400;2023-08-17T11:47:46;3.83;;;2.90;;
68947;SDS011;55996;49.546;7.400;2023-08-17T11:50:13;5.35;;;3.00;;
68947;SDS011;55996;49.546;7.400;2023-08-17T11:52:39;3.30;;;3.00;;
68947;SDS011;55996;49.546;7.400;2023-08-17T11:55:05;3.20;;;2.85;;
68947;SDS011;55996;49.546;7.400;2023-08-17T11:57:32;3.05;;;2.83;;
68947;SDS011;55996;49.546;7.400;2023-08-17T11:59:58;3.20;;;2.90;;
68947;SDS011;55996;49.546;7.400;2023-08-17T12:02:25;7.10;;;3.10;;
68947;SDS011;55996;49.546;7.400;2023-08-17T12:04:52;4.35;;;2.80;;
68947;SDS011;55996;49.546;7.400;2023-08-17T12:07:18;2.97;;;2.78;;
68947;SDS011;55996;49.546;7.400;2023-08-17T12:09:45;3.40;;;3.10;;
68947;SDS011;55996;49.546;7.400;2023-08-17T12:12:11;3.15;;;2.85;;
68947;SDS011;55996;49.546;7.400;2023-08-17T12:14:37;3.75;;;2.70;;
68947;SDS011;55996;49.546;7.400;2023-08-17T12:17:06;2.88;;;2.50;;
68947;SDS011;55996;49.546;7.400;2023-08-17T12:19:32;3.40;;;2.80;;
68947;SDS011;55996;49.546;7.400;2023-08-17T12:21:57;4.57;;;3.15;;
68947;SDS011;55996;49.546;7.400;2023-08-17T12:24:26;3.17;;;2.67;;
68947;SDS011;55996;49.546;7.400;2023-08-17T12:26:51;5.30;;;3.08;;
68947;SDS011;55996;49.546;7.400;2023-08-17T12:29:17;3.65;;;2.83;;
68947;SDS011;55996;49.546;7.400;2023-08-17T12:31:42;3.50;;;3.20;;
68947;SDS011;55996;49.546;7.400;2023-08-17T12:34:08;5.47;;;3.17;;
68947;SDS011;55996;49.546;7.400;2023-08-17T12:36:33;3.30;;;3.00;;
68947;SDS011;55996;49.546;7.400;2023-08-17T12:39:00;3.75;;;2.70;;
68947;SDS011;55996;49.546;7.400;2023-08-17T12:41:26;2.65;;;2.45;;
68947;SDS011;55996;49.546;7.400;2023-08-17T12:43:51;3.25;;;2.78;;
68947;SDS011;55996;49.546;7.400;2023-08-17T12:46:19;3.97;;;2.63;;
68947;SDS011;55996;49.546;7.400;2023-08-17T12:48:44;3.13;;;2.83;;
68947;SDS011;55996;49.546;7.400;2023-08-17T12:51:10;4.43;;;2.85;;
68947;SDS011;55996;49.546;7.400;2023-08-17T12:53:35;4.25;;;3.13;;
68947;SDS011;55996;49.546;7.400;2023-08-17T12:56:01;3.40;;;3.10;;
68947;SDS011;55996;49.546;7.400;2023-08-17T12:58:26;3.22;;;2.92;;
68947;SDS011;55996;49.546;7.400;2023-08-17T13:00:52;3.55;;;2.70;;
68947;SDS011;55996;49.546;7.400;2023-08-17T13:03:19;3.00;;;2.80;;
68947;SDS011;55996;49.546;7.400;2023-08-17T13:05:45;2.95;;;2.65;;
68947;SDS011;55996;49.546;7.400;2023-08-17T13:08:11;5.15;;;2.42;;
68947;SDS011;55996;49.546;7.400;2023-08-17T13:10:36;2.97;;;2.78;;
68947;SDS011;55996;49.546;7.400;2023-08-17T13:13:02;6.28;;;2.83;;
68947;SDS011;55996;49.546;7.400;2023-08-17T13:15:29;6.45;;;2.53;;
68947;SDS011;55996;49.546;7.400;2023-08-17T13:17:54;5.97;;;2.45;;
68947;SDS011;55996;49.546;7.400;2023-08-17T13:20:20;2.67;;;2.47;;
68947;SDS011;55996;49.546;7.400;2023-08-17T13:22:46;4.20;;;2.30;;
68947;SDS011;55996;49.546;7.400;2023-08-17T13:25:12;4.90;;;2.35;;
68947;SDS011;55996;49.546;7.400;2023-08-17T13:27:37;2.80;;;2.50;;
68947;SDS011;55996;49.546;7.400;2023-08-17T13:30:03;3.70;;;2.50;;
68947;SDS011;55996;49.546;7.400;2023-08-17T13:32:29;3.08;;;2.55;;
68947;SDS011;55996;49.546;7.400;2023-08-17T13:34:55;4.80;;;2.40;;
68947;SDS011;55996;49.546;7.400;2023-08-17T13:37:21;3.80;;;2.63;;
68947;SDS011;55996;49.546;7.400;2023-08-17T13:39:47;3.13;;;2.40;;
68947;SDS011;55996;49.546;7.400;2023-08-17T13:42:12;2.38;;;2.10;;
68947;SDS011;55996;49.546;7.400;2023-08-17T13:44:38;4.22;;;2.47;;
68947;SDS011;55996;49.546;7.400;2023-08-17T13:47:04;3.40;;;2.63;;
68947;SDS011;55996;49.546;7.400;2023-08-17T13:49:29;3.28;;;1.98;;
68947;SDS011;55996;49.546;7.400;2023-08-17T13:51:55;3.45;;;2.50;;
68947;SDS011;55996;49.546;7.400;2023-08-17T13:54:21;4.00;;;2.40;;
68947;SDS011;55996;49.546;7.400;2023-08-17T13:56:47;2.58;;;2.00;;
68947;SDS011;55996;49.546;7.400;2023-08-17T13:59:13;2.75;;;2.20;;
68947;SDS011;55996;49.546;7.400;2023-08-17T14:01:38;3.17;;;2.55;;
68947;SDS011;55996;49.546;7.400;2023-08-17T14:04:04;5.03;;;2.40;;
68947;SDS011;55996;49.546;7.400;2023-08-17T14:06:33;3.65;;;2.17;;
68947;SDS011;55996;49.546;7.400;2023-08-17T14:08:58;3.63;;;2.45;;
68947;SDS011;55996;49.546;7.400;2023-08-17T14:11:24;3.45;;;2.60;;
68947;SDS011;55996;49.546;7.400;2023-08-17T14:13:49;3.47;;;2.50;;
68947;SDS011;55996;49.546;7.400;2023-08-17T14:16:14;3.78;;;2.60;;
68947;SDS011;55996;49.546;7.400;2023-08-17T14:18:40;2.65;;;2.45;;
68947;SDS011;55996;49.546;7.400;2023-08-17T14:21:05;4.57;;;2.63;;
68947;SDS011;55996;49.546;7.400;2023-08-17T14:23:31;4.45;;;2.72;;
68947;SDS011;55996;49.546;7.400;2023-08-17T14:25:56;3.03;;;2.70;;
68947;SDS011;55996;49.546;7.400;2023-08-17T14:28:22;2.55;;;2.35;;
68947;SDS011;55996;49.546;7.400;2023-08-17T14:30:47;3.47;;;2.47;;
68947;SDS011;55996;49.546;7.400;2023-08-17T14:33:13;3.53;;;2.72;;
68947;SDS011;55996;49.546;7.400;2023-08-17T14:35:40;3.20;;;2.90;;
68947;SDS011;55996;49.546;7.400;2023-08-17T14:38:05;3.55;;;2.63;;
68947;SDS011;55996;49.546;7.400;2023-08-17T14:40:34;2.95;;;2.50;;
68947;SDS011;55996;49.546;7.400;2023-08-17T14:43:00;3.65;;;2.20;;
68947;SDS011;55996;49.546;7.400;2023-08-17T14:45:25;3.20;;;2.45;;
68947;SDS011;55996;49.546;7.400;2023-08-17T14:47:50;4.30;;;2.50;;
68947;SDS011;55996;49.546;7.400;2023-08-17T14:50:16;4.05;;;2.90;;
68947;SDS011;55996;49.546;7.400;2023-08-17T14:52:41;4.22;;;3.00;;
68947;SDS011;55996;49.546;7.400;2023-08-17T14:55:07;3.88;;;2.80;;
68947;SDS011;55996;49.546;7.400;2023-08-17T14:57:34;6.25;;;2.80;;
68947;SDS011;55996;49.546;7.400;2023-08-17T14:59:59;2.80;;;2.40;;